createdAt,value
2018-03-25T00:00:34.697Z,80.34
2018-03-25T00:01:34.688Z,80.53
2018-03-25T00:02:34.681Z,80.63
2018-03-25T00:03:34.681Z,80.63
2018-03-25T00:04:34.684Z,80.53
2018-03-25T00:05:34.658Z,81.38
2018-03-25T00:06:34.649Z,80.82
2018-03-25T00:07:34.687Z,81.38
2018-03-25T00:08:34.636Z,81.38
2018-03-25T00:09:34.630Z,80.72
2018-03-25T00:10:34.619Z,80.25
2018-03-25T00:11:34.611Z,80.06
2018-03-25T00:12:34.601Z,80.25
2018-03-25T00:13:34.597Z,80.34
2018-03-25T00:14:34.628Z,80.53
2018-03-25T00:15:34.587Z,80.44
2018-03-25T00:16:34.724Z,80.44
2018-03-25T00:17:34.574Z,80.53
2018-03-25T00:18:34.561Z,80.44
2018-03-25T00:19:34.552Z,80.44
2018-03-25T00:20:34.545Z,80.63
2018-03-25T00:21:34.531Z,80.63
2018-03-25T00:22:34.528Z,81.38
2018-03-25T00:23:34.517Z,81.01
2018-03-25T00:24:34.510Z,80.91
2018-03-25T00:25:34.508Z,80.82
2018-03-25T00:26:34.493Z,80.96
2018-03-25T00:27:34.492Z,81.48
2018-03-25T00:28:34.475Z,81.15
2018-03-25T00:29:34.470Z,81.25
2018-03-25T00:30:34.462Z,81.06
2018-03-25T00:31:34.456Z,80.72
2018-03-25T00:32:34.445Z,80.91
2018-03-25T00:33:34.438Z,81.25
2018-03-25T00:34:34.430Z,81.29
2018-03-25T00:35:34.423Z,81.38
2018-03-25T00:36:34.465Z,81.34
2018-03-25T00:37:34.406Z,80.58
2018-03-25T00:38:34.399Z,80.49
2018-03-25T00:39:34.390Z,81.25
2018-03-25T00:40:34.383Z,80.96
2018-03-25T00:41:34.399Z,81.44
2018-03-25T00:42:34.366Z,81.82
2018-03-25T00:43:34.376Z,81.63
2018-03-25T00:44:34.359Z,81.92
2018-03-25T00:45:35.003Z,81.53
2018-03-25T00:46:34.334Z,81.72
2018-03-25T00:47:34.340Z,81.82
2018-03-25T00:48:34.327Z,81.72
2018-03-25T00:49:34.311Z,81.72
2018-03-25T00:50:34.306Z,81.44
2018-03-25T00:51:34.296Z,81.06
2018-03-25T00:52:34.289Z,81.34
2018-03-25T00:53:34.276Z,81.72
2018-03-25T00:54:34.279Z,81.72
2018-03-25T00:55:34.264Z,81.72
2018-03-25T00:56:34.256Z,81.63
2018-03-25T00:57:34.245Z,81.44
2018-03-25T00:58:34.264Z,81.53
2018-03-25T00:59:34.237Z,81.15
2018-03-25T01:00:34.273Z,81.06
2018-03-25T01:01:34.225Z,81.72
2018-03-25T01:02:34.238Z,81.25
2018-03-25T01:03:34.216Z,81.53
2018-03-25T01:04:34.216Z,81.06
2018-03-25T01:05:34.215Z,81.34
2018-03-25T01:06:34.177Z,81.44
2018-03-25T01:07:34.181Z,81.06
2018-03-25T01:08:34.164Z,81.06
2018-03-25T01:09:34.442Z,81.53
2018-03-25T01:10:34.190Z,81.53
2018-03-25T01:11:34.157Z,81.34
2018-03-25T01:12:34.132Z,81.53
2018-03-25T01:13:34.336Z,81.72
2018-03-25T01:14:34.319Z,81.82
2018-03-25T01:15:34.232Z,81.44
2018-03-25T01:16:34.135Z,81.53
2018-03-25T01:17:34.141Z,81.34
2018-03-25T01:18:34.099Z,81.82
2018-03-25T01:19:34.072Z,81.53
2018-03-25T01:20:34.089Z,81.72
2018-03-25T01:21:34.096Z,81.72
2018-03-25T01:22:34.057Z,81.82
2018-03-25T01:23:34.032Z,81.53
2018-03-25T01:24:34.062Z,81.44
2018-03-25T01:25:34.034Z,81.63
2018-03-25T01:26:34.009Z,81.82
2018-03-25T01:27:34.005Z,81.72
2018-03-25T01:28:33.995Z,81.72
2018-03-25T01:29:34.076Z,82.10
2018-03-25T01:30:33.995Z,81.92
2018-03-25T01:31:34.015Z,82.39
2018-03-25T01:32:34.043Z,82.29
2018-03-25T01:33:34.334Z,81.82
2018-03-25T01:34:33.942Z,81.72
2018-03-25T01:35:33.936Z,82.20
2018-03-25T01:36:34.080Z,82.29
2018-03-25T01:37:33.916Z,82.10
2018-03-25T01:38:33.908Z,82.29
2018-03-25T01:39:33.903Z,82.10
2018-03-25T01:40:33.894Z,82.29
2018-03-25T01:41:33.897Z,82.39
2018-03-25T01:42:34.076Z,82.48
2018-03-25T01:43:33.869Z,82.20
2018-03-25T01:44:33.874Z,82.39
2018-03-25T01:45:33.858Z,82.10
2018-03-25T01:46:33.850Z,82.10
2018-03-25T01:47:34.095Z,82.01
2018-03-25T01:48:33.828Z,81.92
2018-03-25T01:49:33.821Z,82.20
2018-03-25T01:50:33.810Z,82.39
2018-03-25T01:51:33.801Z,82.39
2018-03-25T01:52:33.792Z,82.48
2018-03-25T01:53:33.823Z,81.92
2018-03-25T01:54:33.778Z,81.92
2018-03-25T01:55:33.776Z,82.01
2018-03-25T01:56:33.760Z,81.82
2018-03-25T01:57:33.820Z,81.92
2018-03-25T01:58:33.872Z,82.01
2018-03-25T01:59:33.860Z,81.82
2018-03-25T02:00:33.766Z,81.92
2018-03-25T02:01:33.764Z,82.01
2018-03-25T02:02:33.720Z,82.01
2018-03-25T02:03:33.775Z,82.10
2018-03-25T02:04:33.732Z,81.82
2018-03-25T02:05:33.699Z,82.29
2018-03-25T02:06:33.701Z,81.92
2018-03-25T02:07:33.684Z,82.48
2018-03-25T02:08:33.754Z,82.29
2018-03-25T02:09:33.652Z,83.05
2018-03-25T02:10:33.678Z,82.57
2018-03-25T02:11:33.647Z,82.76
2018-03-25T02:12:33.639Z,83.05
2018-03-25T02:13:33.618Z,82.76
2018-03-25T02:14:33.612Z,82.67
2018-03-25T02:15:33.609Z,82.76
2018-03-25T02:16:33.593Z,83.14
2018-03-25T02:17:33.585Z,82.20
2018-03-25T02:18:33.580Z,82.86
2018-03-25T02:19:33.567Z,82.29
2018-03-25T02:20:33.563Z,82.39
2018-03-25T02:21:33.550Z,82.48
2018-03-25T02:22:33.547Z,82.10
2018-03-25T02:23:33.535Z,82.10
2018-03-25T02:24:33.524Z,81.82
2018-03-25T02:25:33.523Z,81.96
2018-03-25T02:26:33.509Z,82.10
2018-03-25T02:27:33.504Z,81.92
2018-03-25T02:28:33.490Z,82.15
2018-03-25T02:29:33.482Z,82.39
2018-03-25T02:30:33.475Z,83.01
2018-03-25T02:31:33.474Z,82.82
2018-03-25T02:32:33.459Z,82.72
2018-03-25T02:33:33.449Z,82.63
2018-03-25T02:34:33.440Z,82.91
2018-03-25T02:35:33.444Z,82.82
2018-03-25T02:36:33.451Z,82.63
2018-03-25T02:37:33.422Z,82.72
2018-03-25T02:38:33.411Z,82.72
2018-03-25T02:39:33.399Z,82.91
2018-03-25T02:40:33.391Z,82.44
2018-03-25T02:41:33.379Z,83.01
2018-03-25T02:42:33.370Z,82.91
2018-03-25T02:43:33.366Z,83.01
2018-03-25T02:44:33.353Z,83.10
2018-03-25T02:45:33.345Z,83.01
2018-03-25T02:46:33.339Z,82.82
2018-03-25T02:47:33.328Z,83.48
2018-03-25T02:48:33.332Z,82.82
2018-03-25T02:49:33.318Z,83.10
2018-03-25T02:50:33.308Z,83.39
2018-03-25T02:51:33.294Z,82.63
2018-03-25T02:52:33.286Z,83.01
2018-03-25T02:53:33.277Z,83.10
2018-03-25T02:54:33.277Z,82.63
2018-03-25T02:55:33.268Z,83.29
2018-03-25T02:56:33.251Z,83.01
2018-03-25T02:57:33.241Z,83.01
2018-03-25T02:58:33.245Z,82.82
2018-03-25T02:59:33.230Z,82.63
2018-03-25T03:00:33.214Z,83.29
2018-03-25T03:01:33.208Z,83.58
2018-03-25T03:02:33.255Z,83.48
2018-03-25T03:03:33.189Z,83.48
2018-03-25T03:04:33.186Z,83.48
2018-03-25T03:05:33.184Z,83.48
2018-03-25T03:06:33.166Z,83.39
2018-03-25T03:07:33.155Z,83.39
2018-03-25T03:08:33.146Z,83.01
2018-03-25T03:09:33.145Z,83.48
2018-03-25T03:10:33.136Z,83.10
2018-03-25T03:11:33.120Z,83.48
2018-03-25T03:12:33.109Z,83.48
2018-03-25T03:13:33.103Z,83.58
2018-03-25T03:14:33.097Z,83.67
2018-03-25T03:15:33.085Z,83.67
2018-03-25T03:16:33.074Z,83.58
2018-03-25T03:17:33.069Z,83.95
2018-03-25T03:18:35.979Z,83.76
2018-03-25T03:19:33.055Z,83.76
2018-03-25T03:20:33.041Z,84.05
2018-03-25T03:21:33.034Z,83.95
2018-03-25T03:22:33.022Z,83.95
2018-03-25T03:23:33.014Z,83.86
2018-03-25T03:24:33.007Z,83.95
2018-03-25T03:25:32.996Z,83.67
2018-03-25T03:26:33.001Z,83.48
2018-03-25T03:27:32.978Z,83.76
2018-03-25T03:28:32.973Z,83.86
2018-03-25T03:29:32.959Z,83.95
2018-03-25T03:30:32.956Z,83.86
2018-03-25T03:31:32.944Z,83.76
2018-03-25T03:32:32.935Z,83.67
2018-03-25T03:33:32.927Z,83.95
2018-03-25T03:34:32.917Z,83.76
2018-03-25T03:35:32.906Z,83.86
2018-03-25T03:36:32.898Z,84.23
2018-03-25T03:37:32.892Z,84.14
2018-03-25T03:38:32.881Z,83.95
2018-03-25T03:39:32.875Z,84.42
2018-03-25T03:40:32.865Z,84.42
2018-03-25T03:41:32.853Z,84.05
2018-03-25T03:42:32.845Z,83.76
2018-03-25T03:43:32.838Z,83.67
2018-03-25T03:44:32.827Z,83.67
2018-03-25T03:45:32.819Z,84.05
2018-03-25T03:46:32.809Z,83.95
2018-03-25T03:47:32.801Z,83.48
2018-03-25T03:48:32.790Z,84.42
2018-03-25T03:49:32.781Z,83.76
2018-03-25T03:50:32.772Z,84.14
2018-03-25T03:51:32.764Z,83.86
2018-03-25T03:52:32.756Z,83.95
2018-03-25T03:53:32.748Z,83.86
2018-03-25T03:54:32.737Z,84.23
2018-03-25T03:55:32.731Z,83.95
2018-03-25T03:56:32.727Z,84.05
2018-03-25T03:57:32.709Z,84.01
2018-03-25T03:58:32.701Z,84.14
2018-03-25T03:59:32.691Z,84.14
2018-03-25T04:00:32.684Z,84.61
2018-03-25T04:01:32.673Z,83.95
2018-03-25T04:02:32.667Z,84.42
2018-03-25T04:03:32.656Z,84.61
2018-03-25T04:04:32.646Z,84.42
2018-03-25T04:05:32.638Z,84.33
2018-03-25T04:06:32.627Z,84.67
2018-03-25T04:07:32.621Z,84.33
2018-03-25T04:08:32.611Z,84.71
2018-03-25T04:09:32.606Z,84.05
2018-03-25T04:10:32.593Z,84.33
2018-03-25T04:11:32.582Z,84.14
2018-03-25T04:12:32.573Z,84.05
2018-03-25T04:13:32.564Z,83.86
2018-03-25T04:14:32.555Z,84.61
2018-03-25T04:15:32.547Z,84.23
2018-03-25T04:16:32.536Z,84.42
2018-03-25T04:17:32.528Z,84.61
2018-03-25T04:18:32.522Z,84.58
2018-03-25T04:19:32.510Z,84.71
2018-03-25T04:20:32.501Z,84.90
2018-03-25T04:21:32.491Z,84.48
2018-03-25T04:22:32.483Z,84.52
2018-03-25T04:23:32.479Z,84.71
2018-03-25T04:24:32.466Z,84.01
2018-03-25T04:25:32.455Z,84.33
2018-03-25T04:26:32.451Z,84.61
2018-03-25T04:27:32.437Z,84.42
2018-03-25T04:28:32.428Z,84.42
2018-03-25T04:29:32.418Z,84.71
2018-03-25T04:30:32.409Z,84.67
2018-03-25T04:31:32.399Z,84.81
2018-03-25T04:32:32.395Z,84.90
2018-03-25T04:33:32.382Z,84.81
2018-03-25T04:34:32.378Z,84.71
2018-03-25T04:35:32.363Z,84.29
2018-03-25T04:36:32.353Z,84.71
2018-03-25T04:37:32.351Z,84.71
2018-03-25T04:38:32.336Z,83.91
2018-03-25T04:39:32.333Z,84.39
2018-03-25T04:40:32.332Z,84.01
2018-03-25T04:41:32.307Z,84.20
2018-03-25T04:42:32.353Z,84.29
2018-03-25T04:43:32.290Z,83.91
2018-03-25T04:44:32.281Z,84.29
2018-03-25T04:45:32.272Z,83.82
2018-03-25T04:46:32.262Z,84.10
2018-03-25T04:47:32.258Z,84.29
2018-03-25T04:48:32.243Z,83.91
2018-03-25T04:49:32.236Z,84.20
2018-03-25T04:50:32.228Z,84.01
2018-03-25T04:51:32.216Z,84.10
2018-03-25T04:52:32.207Z,84.20
2018-03-25T04:53:32.199Z,84.39
2018-03-25T04:54:32.188Z,83.44
2018-03-25T04:55:32.180Z,83.63
2018-03-25T04:56:32.173Z,84.29
2018-03-25T04:57:32.160Z,83.82
2018-03-25T04:58:32.153Z,84.10
2018-03-25T04:59:32.143Z,84.29
2018-03-25T05:00:32.133Z,84.39
2018-03-25T05:01:32.123Z,84.01
2018-03-25T05:02:32.117Z,83.91
2018-03-25T05:03:32.103Z,84.01
2018-03-25T05:04:32.095Z,84.01
2018-03-25T05:05:32.089Z,83.91
2018-03-25T05:06:32.077Z,84.67
2018-03-25T05:07:32.067Z,84.39
2018-03-25T05:08:32.057Z,84.29
2018-03-25T05:09:32.050Z,83.91
2018-03-25T05:10:32.048Z,84.20
2018-03-25T05:11:32.032Z,83.91
2018-03-25T05:12:32.020Z,84.39
2018-03-25T05:13:32.011Z,84.01
2018-03-25T05:14:32.004Z,84.01
2018-03-25T05:15:31.998Z,84.20
2018-03-25T05:16:31.988Z,84.39
2018-03-25T05:17:31.973Z,84.67
2018-03-25T05:18:31.974Z,84.67
2018-03-25T05:19:31.973Z,84.77
2018-03-25T05:20:31.952Z,84.39
2018-03-25T05:21:31.935Z,84.01
2018-03-25T05:22:31.928Z,84.48
2018-03-25T05:23:31.919Z,84.39
2018-03-25T05:24:31.913Z,84.10
2018-03-25T05:25:31.900Z,84.67
2018-03-25T05:26:31.887Z,84.29
2018-03-25T05:27:31.882Z,84.67
2018-03-25T05:28:31.875Z,84.48
2018-03-25T05:29:31.860Z,84.58
2018-03-25T05:30:31.850Z,84.95
2018-03-25T05:31:31.842Z,85.14
2018-03-25T05:32:31.830Z,85.05
2018-03-25T05:33:31.824Z,85.14
2018-03-25T05:34:31.813Z,84.58
2018-03-25T05:35:31.804Z,84.86
2018-03-25T05:36:31.793Z,84.77
2018-03-25T05:37:31.788Z,84.67
2018-03-25T05:38:31.775Z,84.39
2018-03-25T05:39:31.782Z,84.48
2018-03-25T05:40:31.757Z,84.39
2018-03-25T05:41:31.751Z,83.82
2018-03-25T05:42:31.739Z,84.29
2018-03-25T05:43:31.731Z,83.82
2018-03-25T05:44:31.718Z,83.72
2018-03-25T05:45:31.709Z,84.10
2018-03-25T05:46:31.713Z,84.39
2018-03-25T05:47:31.690Z,83.72
2018-03-25T05:48:31.679Z,83.53
2018-03-25T05:49:31.700Z,83.63
2018-03-25T05:50:31.667Z,83.76
2018-03-25T05:51:31.689Z,84.01
2018-03-25T05:52:31.647Z,83.67
2018-03-25T05:53:31.637Z,83.53
2018-03-25T05:54:31.623Z,83.91
2018-03-25T05:55:31.618Z,83.95
2018-03-25T05:56:31.604Z,83.95
2018-03-25T05:57:31.596Z,83.76
2018-03-25T05:58:31.588Z,83.86
2018-03-25T05:59:31.577Z,83.76
2018-03-25T06:00:31.566Z,84.23
2018-03-25T06:01:31.568Z,84.61
2018-03-25T06:02:31.549Z,84.05
2018-03-25T06:03:31.541Z,84.71
2018-03-25T06:04:31.530Z,84.52
2018-03-25T06:05:31.520Z,84.42
2018-03-25T06:06:31.517Z,84.71
2018-03-25T06:07:31.503Z,84.71
2018-03-25T06:08:31.492Z,84.52
2018-03-25T06:09:31.485Z,84.52
2018-03-25T06:10:31.477Z,85.19
2018-03-25T06:11:31.468Z,85.09
2018-03-25T06:12:31.464Z,85.28
2018-03-25T06:13:31.449Z,85.38
2018-03-25T06:14:31.440Z,85.57
2018-03-25T06:15:31.436Z,85.75
2018-03-25T06:16:31.419Z,85.38
2018-03-25T06:17:31.409Z,85.66
2018-03-25T06:18:31.403Z,85.57
2018-03-25T06:19:31.392Z,85.57
2018-03-25T06:20:31.381Z,85.38
2018-03-25T06:21:31.372Z,85.28
2018-03-25T06:22:31.362Z,85.38
2018-03-25T06:23:31.354Z,85.19
2018-03-25T06:24:31.343Z,85.19
2018-03-25T06:25:31.333Z,85.47
2018-03-25T06:26:31.326Z,85.38
2018-03-25T06:27:31.315Z,85.47
2018-03-25T06:28:31.305Z,85.38
2018-03-25T06:29:31.310Z,85.38
2018-03-25T06:30:31.289Z,85.19
2018-03-25T06:31:31.278Z,85.28
2018-03-25T06:32:31.267Z,86.13
2018-03-25T06:33:31.260Z,85.75
2018-03-25T06:34:31.253Z,86.04
2018-03-25T06:35:31.239Z,86.04
2018-03-25T06:36:31.228Z,85.94
2018-03-25T06:37:31.219Z,86.04
2018-03-25T06:38:31.252Z,86.13
2018-03-25T06:39:31.200Z,86.04
2018-03-25T06:40:31.193Z,85.47
2018-03-25T06:41:31.181Z,85.47
2018-03-25T06:42:31.173Z,85.38
2018-03-25T06:43:31.163Z,85.19
2018-03-25T06:44:31.153Z,85.28
2018-03-25T06:45:31.143Z,85.28
2018-03-25T06:46:31.141Z,85.38
2018-03-25T06:47:31.127Z,85.38
2018-03-25T06:48:31.118Z,85.09
2018-03-25T06:49:31.107Z,85.28
2018-03-25T06:50:31.096Z,85.38
2018-03-25T06:51:31.087Z,85.47
2018-03-25T06:52:31.079Z,85.57
2018-03-25T06:53:31.072Z,85.57
2018-03-25T06:54:31.062Z,85.19
2018-03-25T06:55:31.048Z,85.09
2018-03-25T06:56:31.040Z,85.09
2018-03-25T06:57:31.031Z,85.09
2018-03-25T06:58:31.020Z,84.71
2018-03-25T06:59:31.019Z,85.09
2018-03-25T07:00:31.002Z,85.09
2018-03-25T07:01:30.993Z,85.09
2018-03-25T07:02:30.982Z,85.09
2018-03-25T07:03:30.973Z,85.19
2018-03-25T07:04:30.965Z,85.09
2018-03-25T07:05:30.954Z,85.09
2018-03-25T07:06:30.948Z,84.52
2018-03-25T07:07:30.939Z,84.71
2018-03-25T07:08:30.934Z,84.33
2018-03-25T07:09:30.918Z,84.52
2018-03-25T07:10:30.907Z,84.61
2018-03-25T07:11:30.898Z,84.71
2018-03-25T07:12:30.890Z,84.05
2018-03-25T07:13:30.880Z,84.28
2018-03-25T07:14:30.874Z,83.90
2018-03-25T07:15:30.862Z,84.38
2018-03-25T07:16:30.855Z,84.38
2018-03-25T07:17:30.843Z,83.62
2018-03-25T07:18:30.836Z,83.71
2018-03-25T07:19:30.827Z,83.62
2018-03-25T07:20:30.815Z,83.90
2018-03-25T07:21:30.828Z,83.71
2018-03-25T07:22:30.800Z,83.81
2018-03-25T07:23:30.789Z,83.71
2018-03-25T07:24:30.779Z,83.33
2018-03-25T07:25:30.770Z,83.52
2018-03-25T07:26:30.763Z,83.52
2018-03-25T07:27:30.756Z,82.86
2018-03-25T07:28:32.023Z,83.33
2018-03-25T07:29:30.735Z,83.24
2018-03-25T07:30:30.725Z,83.05
2018-03-25T07:31:30.717Z,83.05
2018-03-25T07:32:30.789Z,83.14
2018-03-25T07:33:30.828Z,82.67
2018-03-25T07:34:30.866Z,83.05
2018-03-25T07:35:30.685Z,82.67
2018-03-25T07:36:30.682Z,82.86
2018-03-25T07:37:30.663Z,82.67
2018-03-25T07:38:30.654Z,82.76
2018-03-25T07:39:30.653Z,82.86
2018-03-25T07:40:30.644Z,82.48
2018-03-25T07:41:30.631Z,82.39
2018-03-25T07:42:30.618Z,82.10
2018-03-25T07:43:30.655Z,81.82
2018-03-25T07:44:30.602Z,81.82
2018-03-25T07:45:30.600Z,81.86
2018-03-25T07:46:30.584Z,81.95
2018-03-25T07:47:30.576Z,81.38
2018-03-25T07:48:30.566Z,81.67
2018-03-25T07:49:30.557Z,81.86
2018-03-25T07:50:30.552Z,80.91
2018-03-25T07:51:30.542Z,81.01
2018-03-25T07:52:30.540Z,81.20
2018-03-25T07:53:30.524Z,80.82
2018-03-25T07:54:30.518Z,81.29
2018-03-25T07:55:30.508Z,81.20
2018-03-25T07:56:30.503Z,81.01
2018-03-25T07:57:30.491Z,81.01
2018-03-25T07:58:30.485Z,80.63
2018-03-25T07:59:30.558Z,80.06
2018-03-25T08:00:30.467Z,79.96
2018-03-25T08:01:30.480Z,80.53
2018-03-25T08:02:30.461Z,80.53
2018-03-25T08:03:30.443Z,80.63
2018-03-25T08:04:30.469Z,80.44
2018-03-25T08:05:30.431Z,79.72
2018-03-25T08:06:30.418Z,79.30
2018-03-25T08:07:30.410Z,79.44
2018-03-25T08:08:30.402Z,79.72
2018-03-25T08:09:30.417Z,79.53
2018-03-25T08:10:30.388Z,79.53
2018-03-25T08:11:30.381Z,79.34
2018-03-25T08:12:30.370Z,79.25
2018-03-25T08:13:30.361Z,79.15
2018-03-25T08:14:30.354Z,79.15
2018-03-25T08:15:30.350Z,78.96
2018-03-25T08:16:30.343Z,78.77
2018-03-25T08:17:30.330Z,78.87
2018-03-25T08:18:30.324Z,79.34
2018-03-25T08:19:30.585Z,79.44
2018-03-25T08:20:31.522Z,79.15
2018-03-25T08:21:30.430Z,78.87
2018-03-25T08:22:30.295Z,79.25
2018-03-25T08:23:30.287Z,78.49
2018-03-25T08:24:30.276Z,78.39
2018-03-25T08:25:30.273Z,78.58
2018-03-25T08:26:30.262Z,78.49
2018-03-25T08:27:30.254Z,78.20
2018-03-25T08:28:30.253Z,78.34
2018-03-25T08:29:30.296Z,78.15
2018-03-25T08:30:30.240Z,77.86
2018-03-25T08:31:30.226Z,77.29
2018-03-25T08:32:30.218Z,77.67
2018-03-25T08:33:30.210Z,77.48
2018-03-25T08:34:30.206Z,77.39
2018-03-25T08:35:30.197Z,77.01
2018-03-25T08:36:30.187Z,76.63
2018-03-25T08:37:30.182Z,76.54
2018-03-25T08:38:30.177Z,77.01
2018-03-25T08:39:30.166Z,76.44
2018-03-25T08:40:30.158Z,77.01
2018-03-25T08:41:30.152Z,76.44
2018-03-25T08:42:30.146Z,76.44
2018-03-25T08:43:30.138Z,76.54
2018-03-25T08:44:30.133Z,76.15
2018-03-25T08:45:30.125Z,75.59
2018-03-25T08:46:30.164Z,75.91
2018-03-25T08:47:30.115Z,75.53
2018-03-25T08:48:30.105Z,75.43
2018-03-25T08:49:30.103Z,75.24
2018-03-25T08:50:30.089Z,74.77
2018-03-25T08:51:30.089Z,74.87
2018-03-25T08:52:30.075Z,74.96
2018-03-25T08:53:30.068Z,74.49
2018-03-25T08:54:30.063Z,74.39
2018-03-25T08:55:30.059Z,74.20
2018-03-25T08:56:30.048Z,74.01
2018-03-25T08:57:30.041Z,74.11
2018-03-25T08:58:30.038Z,74.68
2018-03-25T08:59:30.033Z,73.72
2018-03-25T09:00:30.023Z,74.01
2018-03-25T09:01:30.017Z,73.82
2018-03-25T09:02:30.011Z,73.35
2018-03-25T09:03:30.004Z,73.57
2018-03-25T09:04:29.997Z,73.00
2018-03-25T09:05:29.992Z,72.81
2018-03-25T09:06:29.990Z,72.91
2018-03-25T09:07:29.984Z,73.10
2018-03-25T09:08:29.972Z,73.10
2018-03-25T09:09:29.992Z,72.53
2018-03-25T09:10:29.961Z,72.34
2018-03-25T09:11:29.955Z,72.63
2018-03-25T09:12:29.948Z,72.34
2018-03-25T09:13:29.944Z,72.06
2018-03-25T09:14:29.941Z,72.25
2018-03-25T09:15:29.931Z,71.96
2018-03-25T09:16:29.924Z,71.86
2018-03-25T09:17:29.927Z,71.96
2018-03-25T09:18:29.918Z,71.39
2018-03-25T09:19:29.909Z,71.01
2018-03-25T09:20:29.909Z,71.04
2018-03-25T09:21:29.906Z,70.57
2018-03-25T09:22:29.891Z,70.29
2018-03-25T09:23:29.891Z,69.81
2018-03-25T09:24:29.878Z,69.91
2018-03-25T09:25:29.879Z,69.62
2018-03-25T09:26:29.869Z,68.96
2018-03-25T09:27:29.869Z,68.10
2018-03-25T09:28:29.857Z,68.19
2018-03-25T09:29:29.853Z,67.72
2018-03-25T09:30:29.858Z,67.63
2018-03-25T09:31:29.841Z,67.63
2018-03-25T09:32:29.835Z,67.25
2018-03-25T09:33:29.831Z,66.77
2018-03-25T09:34:29.824Z,66.49
2018-03-25T09:35:29.819Z,66.67
2018-03-25T09:36:29.823Z,66.01
2018-03-25T09:37:29.808Z,65.63
2018-03-25T09:38:29.813Z,65.38
2018-03-25T09:39:29.805Z,65.19
2018-03-25T09:40:29.793Z,64.72
2018-03-25T09:41:29.787Z,64.24
2018-03-25T09:42:29.796Z,63.95
2018-03-25T09:43:29.780Z,63.57
2018-03-25T09:44:29.772Z,63.29
2018-03-25T09:45:29.770Z,63.10
2018-03-25T09:46:29.762Z,63.29
2018-03-25T09:47:29.758Z,62.34
2018-03-25T09:48:29.756Z,62.91
2018-03-25T09:49:29.763Z,62.37
2018-03-25T09:50:29.747Z,62.46
2018-03-25T09:51:29.736Z,62.46
2018-03-25T09:52:29.751Z,61.99
2018-03-25T09:53:29.726Z,62.18
2018-03-25T09:54:29.720Z,61.99
2018-03-25T09:55:29.725Z,61.80
2018-03-25T09:56:29.714Z,62.37
2018-03-25T09:57:29.708Z,61.99
2018-03-25T09:58:29.753Z,61.90
2018-03-25T09:59:29.698Z,62.18
2018-03-25T10:00:29.701Z,62.37
2018-03-25T10:01:29.698Z,61.42
2018-03-25T10:02:29.690Z,61.32
2018-03-25T10:03:29.679Z,61.71
2018-03-25T10:04:29.682Z,61.13
2018-03-25T10:05:29.673Z,60.66
2018-03-25T10:06:29.671Z,60.66
2018-03-25T10:07:29.666Z,60.38
2018-03-25T10:08:29.659Z,60.09
2018-03-25T10:09:29.677Z,60.38
2018-03-25T10:10:29.658Z,59.33
2018-03-25T10:11:29.717Z,58.88
2018-03-25T10:12:29.644Z,58.22
2018-03-25T10:13:29.651Z,57.65
2018-03-25T10:14:29.631Z,57.93
2018-03-25T10:15:29.627Z,57.17
2018-03-25T10:16:29.621Z,57.17
2018-03-25T10:17:29.619Z,57.36
2018-03-25T10:18:29.615Z,56.60
2018-03-25T10:19:29.619Z,56.41
2018-03-25T10:20:29.607Z,56.31
2018-03-25T10:21:29.602Z,55.93
2018-03-25T10:22:29.598Z,56.41
2018-03-25T10:23:29.595Z,55.27
2018-03-25T10:24:29.591Z,55.17
2018-03-25T10:25:29.589Z,55.49
2018-03-25T10:26:29.584Z,55.46
2018-03-25T10:27:29.579Z,55.39
2018-03-25T10:28:29.572Z,55.49
2018-03-25T10:29:29.569Z,55.96
2018-03-25T10:30:29.564Z,55.96
2018-03-25T10:31:29.559Z,55.49
2018-03-25T10:32:29.556Z,55.87
2018-03-25T10:33:29.553Z,55.87
2018-03-25T10:34:29.565Z,55.20
2018-03-25T10:35:29.549Z,54.91
2018-03-25T10:36:29.542Z,54.63
2018-03-25T10:37:29.542Z,55.01
2018-03-25T10:38:29.535Z,55.10
2018-03-25T10:39:29.533Z,55.20
2018-03-25T10:40:29.528Z,55.10
2018-03-25T10:41:29.521Z,54.82
2018-03-25T10:42:29.524Z,55.58
2018-03-25T10:43:29.558Z,55.87
2018-03-25T10:44:29.540Z,55.49
2018-03-25T10:45:29.507Z,55.77
2018-03-25T10:46:29.509Z,55.29
2018-03-25T10:47:29.501Z,56.63
2018-03-25T10:48:29.527Z,55.99
2018-03-25T10:49:29.511Z,55.51
2018-03-25T10:50:29.489Z,55.51
2018-03-25T10:51:29.486Z,56.18
2018-03-25T10:52:29.488Z,56.27
2018-03-25T10:53:29.478Z,56.09
2018-03-25T10:54:29.479Z,55.70
2018-03-25T10:55:29.472Z,55.51
2018-03-25T10:56:29.472Z,54.94
2018-03-25T10:57:29.481Z,55.42
2018-03-25T10:58:29.462Z,55.42
2018-03-25T10:59:29.463Z,55.32
2018-03-25T11:00:29.462Z,55.04
2018-03-25T11:01:29.451Z,55.61
2018-03-25T11:02:29.448Z,55.70
2018-03-25T11:03:29.456Z,55.42
2018-03-25T11:04:29.445Z,55.22
2018-03-25T11:05:29.438Z,55.51
2018-03-25T11:06:29.441Z,55.80
2018-03-25T11:07:29.440Z,54.85
2018-03-25T11:08:29.427Z,55.13
2018-03-25T11:09:29.426Z,55.13
2018-03-25T11:10:29.427Z,54.68
2018-03-25T11:11:29.429Z,54.68
2018-03-25T11:12:29.453Z,55.07
2018-03-25T11:13:29.562Z,55.07
2018-03-25T11:14:29.480Z,54.68
2018-03-25T11:15:30.985Z,54.49
2018-03-25T11:16:30.100Z,54.30
2018-03-25T11:17:30.461Z,54.30
2018-03-25T11:18:29.521Z,54.21
2018-03-25T11:19:29.432Z,54.30
2018-03-25T11:20:29.439Z,54.30
2018-03-25T11:21:29.505Z,54.49
2018-03-25T11:22:29.399Z,54.39
2018-03-25T11:23:29.463Z,54.30
2018-03-25T11:24:29.500Z,54.49
2018-03-25T11:25:30.456Z,54.59
2018-03-25T11:26:30.934Z,54.30
2018-03-25T11:27:29.508Z,54.59
2018-03-25T11:28:29.422Z,54.61
2018-03-25T11:29:29.987Z,54.52
2018-03-25T11:30:29.426Z,53.76
2018-03-25T11:31:29.465Z,53.66
2018-03-25T11:32:29.479Z,53.76
2018-03-25T11:33:29.410Z,53.66
2018-03-25T11:34:29.394Z,53.47
2018-03-25T11:35:29.953Z,53.85
2018-03-25T11:36:29.440Z,53.28
2018-03-25T11:37:31.461Z,52.90
2018-03-25T11:38:29.362Z,53.02
2018-03-25T11:39:29.412Z,53.09
2018-03-25T11:40:29.418Z,52.92
2018-03-25T11:41:29.955Z,52.92
2018-03-25T11:42:29.424Z,52.92
2018-03-25T11:43:29.369Z,52.64
2018-03-25T11:44:30.455Z,53.02
2018-03-25T11:45:29.546Z,52.73
2018-03-25T11:46:29.430Z,53.02
2018-03-25T11:47:31.005Z,52.92
2018-03-25T11:48:30.425Z,53.02
2018-03-25T11:49:29.390Z,52.36
2018-03-25T11:50:30.961Z,52.26
2018-03-25T11:51:29.972Z,52.45
2018-03-25T11:52:30.106Z,51.97
2018-03-25T11:53:29.318Z,51.78
2018-03-25T11:54:31.442Z,52.07
2018-03-25T11:55:29.407Z,51.59
2018-03-25T11:56:29.369Z,51.21
2018-03-25T11:57:30.454Z,51.50
2018-03-25T11:58:29.331Z,51.40
2018-03-25T11:59:29.977Z,51.40
2018-03-25T12:00:29.339Z,51.12
2018-03-25T12:01:30.441Z,51.12
2018-03-25T12:02:29.941Z,50.92
2018-03-25T12:03:31.458Z,51.02
2018-03-25T12:04:31.518Z,51.50
2018-03-25T12:05:29.958Z,51.21
2018-03-25T12:06:29.439Z,52.07
2018-03-25T12:07:29.330Z,51.88
2018-03-25T12:08:29.962Z,52.07
2018-03-25T12:09:29.946Z,51.97
2018-03-25T12:10:29.421Z,51.88
2018-03-25T12:11:29.420Z,51.50
2018-03-25T12:12:30.938Z,52.16
2018-03-25T12:13:30.466Z,51.78
2018-03-25T12:14:29.984Z,51.97
2018-03-25T12:15:29.281Z,52.07
2018-03-25T12:16:29.940Z,52.33
2018-03-25T12:17:29.318Z,53.19
2018-03-25T12:18:30.067Z,52.80
2018-03-25T12:19:30.431Z,52.80
2018-03-25T12:20:29.375Z,52.71
2018-03-25T12:21:30.025Z,52.90
2018-03-25T12:22:29.299Z,52.92
2018-03-25T12:23:29.401Z,52.73
2018-03-25T12:24:30.976Z,52.92
2018-03-25T12:25:30.056Z,53.31
2018-03-25T12:26:29.970Z,53.31
2018-03-25T12:27:29.365Z,53.21
2018-03-25T12:28:30.466Z,53.21
2018-03-25T12:29:30.973Z,52.73
2018-03-25T12:30:29.278Z,53.21
2018-03-25T12:31:29.285Z,53.19
2018-03-25T12:32:29.307Z,53.09
2018-03-25T12:33:30.475Z,52.83
2018-03-25T12:34:29.976Z,53.31
2018-03-25T12:35:29.951Z,53.50
2018-03-25T12:36:30.479Z,53.41
2018-03-25T12:37:29.962Z,53.02
2018-03-25T12:38:29.261Z,53.97
2018-03-25T12:39:29.297Z,53.69
2018-03-25T12:40:29.281Z,53.69
2018-03-25T12:41:30.092Z,53.31
2018-03-25T12:42:30.014Z,53.41
2018-03-25T12:43:29.972Z,52.92
2018-03-25T12:44:29.249Z,53.41
2018-03-25T12:45:30.947Z,53.02
2018-03-25T12:46:29.237Z,53.02
2018-03-25T12:47:29.218Z,52.92
2018-03-25T12:48:30.471Z,52.92
2018-03-25T12:49:29.239Z,52.83
2018-03-25T12:50:30.488Z,52.92
2018-03-25T12:51:29.244Z,52.92
2018-03-25T12:52:29.300Z,52.73